Time;durP1;ratioP1;P1;durP2;ratioP2;P2;SDS_P1;SDS_P2;PMS_P1;PMS_P2;Temp;Humidity;BMP_temperature;BMP_pressure;BME280_temperature;BME280_humidity;BME280_pressure;Samples;Min_cycle;Max_cycle;Signal;HPM_P1;HPM_P2
2022/01/01 00:01:46;;;;;;;5.50;2.95;;;11.50;99.90;;;;;;5004737;28;20026;-60
2022/01/01 00:04:12;;;;;;;3.95;3.55;;;11.50;99.90;;;;;;5001215;28;20040;-61
2022/01/01 00:06:38;;;;;;;4.15;3.60;;;11.50;99.90;;;;;;5000684;28;20030;-60
2022/01/01 00:09:04;;;;;;;5.15;3.92;;;11.50;99.90;;;;;;5001645;28;20014;-60
2022/01/01 00:11:30;;;;;;;4.28;3.70;;;11.60;99.90;;;;;;5003083;28;20045;-60
2022/01/01 00:13:55;;;;;;;4.28;3.70;;;11.50;99.90;;;;;;5000574;28;20034;-60
2022/01/01 00:16:21;;;;;;;5.88;3.35;;;11.50;99.90;;;;;;4998814;28;20048;-60
2022/01/01 00:18:47;;;;;;;4.63;3.55;;;11.50;99.90;;;;;;4998306;28;20029;-61
2022/01/01 00:21:12;;;;;;;6.47;4.20;;;11.50;99.90;;;;;;5000689;28;20037;-61
2022/01/01 00:23:38;;;;;;;6.65;3.70;;;11.50;99.90;;;;;;4998728;28;20034;-61
2022/01/01 00:26:03;;;;;;;4.18;3.72;;;11.50;99.90;;;;;;5000416;28;20490;-61
2022/01/01 00:28:29;;;;;;;5.20;3.42;;;11.50;99.90;;;;;;5001192;28;20030;-60
2022/01/01 00:30:55;;;;;;;7.43;3.55;;;11.50;99.90;;;;;;5002693;28;20049;-61
2022/01/01 00:33:20;;;;;;;4.95;3.60;;;11.50;99.90;;;;;;5000893;28;20996;-61
2022/01/01 00:35:46;;;;;;;5.38;3.05;;;11.50;99.90;;;;;;5001713;28;20084;-60
2022/01/01 00:38:12;;;;;;;4.32;3.92;;;11.50;99.90;;;;;;5000102;28;20034;-60
2022/01/01 00:40:38;;;;;;;4.75;3.53;;;11.50;99.90;;;;;;5001443;28;20045;-60
2022/01/01 00:43:04;;;;;;;3.53;3.17;;;11.50;99.90;;;;;;5001912;28;20022;-60
2022/01/01 00:45:29;;;;;;;5.75;3.42;;;11.50;99.90;;;;;;5000779;28;20014;-60
2022/01/01 00:47:55;;;;;;;5.18;4.15;;;11.50;99.90;;;;;;5005289;28;20543;-61
2022/01/01 00:50:21;;;;;;;4.75;3.50;;;11.50;99.90;;;;;;5000197;28;20030;-60
2022/01/01 00:52:50;;;;;;;5.45;3.38;;;11.50;99.90;;;;;;5000058;28;20485;-60
2022/01/01 00:55:15;;;;;;;6.40;4.32;;;11.50;99.90;;;;;;5001877;28;20476;-61
2022/01/01 00:57:41;;;;;;;3.83;3.30;;;11.50;99.90;;;;;;5000639;28;20033;-60
2022/01/01 01:00:07;;;;;;;4.00;3.25;;;11.50;99.90;;;;;;5001731;28;20029;-61
2022/01/01 01:02:33;;;;;;;4.57;2.92;;;11.50;99.90;;;;;;5002170;28;20398;-61
2022/01/01 01:04:58;;;;;;;4.65;3.28;;;11.50;99.90;;;;;;5001406;28;20026;-61
2022/01/01 01:07:24;;;;;;;4.55;3.30;;;11.50;99.90;;;;;;5001689;28;20048;-61
2022/01/01 01:09:50;;;;;;;4.38;3.47;;;11.50;99.90;;;;;;5001814;28;20030;-61
2022/01/01 01:12:20;;;;;;;3.47;3.17;;;11.60;99.90;;;;;;4999385;28;20077;-61
2022/01/01 01:14:46;;;;;;;3.25;2.85;;;11.60;99.90;;;;;;5004620;28;20178;-60
2022/01/01 01:17:12;;;;;;;5.65;3.40;;;11.60;99.90;;;;;;5002191;28;20030;-60
2022/01/01 01:19:38;;;;;;;3.75;2.55;;;11.60;99.90;;;;;;5006328;28;20145;-61
2022/01/01 01:22:05;;;;;;;3.50;3.20;;;11.60;99.90;;;;;;5002084;28;20101;-61
2022/01/01 01:24:31;;;;;;;5.68;3.42;;;11.60;99.90;;;;;;4999553;28;20040;-61
2022/01/01 01:27:00;;;;;;;4.97;3.58;;;11.60;99.90;;;;;;5001831;28;20465;-61
2022/01/01 01:29:26;;;;;;;3.55;3.25;;;11.60;99.90;;;;;;5000790;28;20030;-60
2022/01/01 01:31:52;;;;;;;4.68;3.22;;;11.60;99.90;;;;;;5001514;28;20037;-60
2022/01/01 01:34:18;;;;;;;5.22;3.42;;;11.60;99.90;;;;;;5001703;28;20026;-60
2022/01/01 01:36:43;;;;;;;4.82;3.47;;;11.60;99.90;;;;;;5002112;28;20026;-61
2022/01/01 01:39:10;;;;;;;5.60;4.03;;;11.60;99.90;;;;;;5004574;28;20072;-61
2022/01/01 01:41:36;;;;;;;6.03;4.25;;;11.60;99.90;;;;;;5001303;28;20078;-60
2022/01/01 01:44:06;;;;;;;6.78;5.18;;;11.60;99.90;;;;;;4999290;28;20482;-61
2022/01/01 01:46:31;;;;;;;5.93;4.72;;;11.60;99.90;;;;;;4998433;28;20040;-61
2022/01/01 01:48:57;;;;;;;6.50;4.90;;;11.50;99.90;;;;;;5005173;28;20022;-61
2022/01/01 01:51:23;;;;;;;9.30;5.07;;;11.50;99.90;;;;;;5001446;28;20020;-61
2022/01/01 01:53:49;;;;;;;6.65;4.28;;;11.50;99.90;;;;;;5000177;28;20424;-61
2022/01/01 01:56:15;;;;;;;6.80;4.45;;;11.50;99.90;;;;;;4997415;28;20027;-61
2022/01/01 01:58:41;;;;;;;5.95;4.75;;;11.50;99.90;;;;;;4997992;28;20026;-60
2022/01/01 02:03:32;;;;;;;4.47;3.95;;;11.50;99.90;;;;;;5000949;28;20486;-60
2022/01/01 02:05:59;;;;;;;5.80;4.32;;;11.50;99.90;;;;;;4999290;28;20018;-61
2022/01/01 02:08:26;;;;;;;6.68;4.30;;;11.50;99.90;;;;;;5000043;28;20026;-60
2022/01/01 02:10:52;;;;;;;4.50;4.13;;;11.50;99.90;;;;;;4999261;28;20022;-60
2022/01/01 02:13:26;;;;;;;3.72;3.30;;;11.50;99.90;;;;;;4999991;28;20038;-61
2022/01/01 02:18:19;;;;;;;4.78;3.42;;;11.60;99.90;;;;;;4999233;28;20069;-61
2022/01/01 02:20:49;;;;;;;7.85;3.63;;;11.60;99.90;;;;;;4999014;28;20064;-61
2022/01/01 02:23:22;;;;;;;4.30;3.88;;;11.60;99.90;;;;;;5000771;28;20018;-61
2022/01/01 02:25:52;;;;;;;4.40;3.88;;;11.60;99.90;;;;;;5000004;28;20026;-60
2022/01/01 02:28:19;;;;;;;6.20;3.95;;;11.60;99.90;;;;;;4997459;28;20126;-61
2022/01/01 02:30:45;;;;;;;4.57;4.18;;;11.60;99.90;;;;;;4996746;28;20037;-61
2022/01/01 02:33:10;;;;;;;4.38;3.08;;;11.60;99.90;;;;;;4999749;28;20422;-61
2022/01/01 02:35:36;;;;;;;4.40;3.42;;;11.60;99.90;;;;;;5001292;28;20532;-60
2022/01/01 02:38:02;;;;;;;6.03;4.10;;;11.60;99.90;;;;;;4999157;28;20037;-61
2022/01/01 02:40:27;;;;;;;5.60;3.83;;;11.60;99.90;;;;;;5001813;28;20042;-61
2022/01/01 02:42:54;;;;;;;6.13;4.68;;;11.60;99.90;;;;;;5001734;28;20385;-61
2022/01/01 02:45:20;;;;;;;4.20;3.80;;;11.60;99.90;;;;;;4998261;28;20022;-61
2022/01/01 02:47:46;;;;;;;5.82;4.35;;;11.60;99.90;;;;;;5002790;28;20394;-61
2022/01/01 02:50:12;;;;;;;4.70;4.18;;;11.60;99.90;;;;;;5001726;28;20034;-61
2022/01/01 02:52:38;;;;;;;6.50;3.75;;;11.60;99.90;;;;;;5003386;28;20038;-61
2022/01/01 02:55:06;;;;;;;6.55;3.78;;;11.60;99.90;;;;;;5004244;28;20026;-60
2022/01/01 02:57:32;;;;;;;3.97;3.47;;;11.60;99.90;;;;;;5001708;28;20034;-61
2022/01/01 02:59:58;;;;;;;4.90;4.22;;;11.60;99.90;;;;;;5002354;28;20486;-61
2022/01/01 03:02:23;;;;;;;5.38;3.35;;;11.60;99.90;;;;;;5005461;28;20121;-61
2022/01/01 03:04:49;;;;;;;5.25;4.28;;;11.60;99.90;;;;;;5001529;28;20060;-60
2022/01/01 03:07:15;;;;;;;5.55;4.43;;;11.60;99.90;;;;;;5002079;28;20049;-60
2022/01/01 03:09:41;;;;;;;4.82;4.10;;;11.60;99.90;;;;;;5001791;28;20026;-61
2022/01/01 03:12:09;;;;;;;5.30;4.32;;;11.60;99.90;;;;;;5004503;28;20017;-60
2022/01/01 03:14:36;;;;;;;5.10;3.78;;;11.60;99.90;;;;;;5004712;28;20375;-60
2022/01/01 03:17:04;;;;;;;4.90;4.13;;;11.60;99.90;;;;;;5003291;28;20018;-60
2022/01/01 03:19:29;;;;;;;9.15;4.78;;;11.60;99.90;;;;;;5001255;28;20110;-61
2022/01/01 03:21:55;;;;;;;5.45;4.57;;;11.60;99.90;;;;;;5002043;28;20042;-61
2022/01/01 03:24:20;;;;;;;4.78;4.38;;;11.60;99.90;;;;;;4999124;28;20048;-61
2022/01/01 03:26:46;;;;;;;5.22;4.28;;;11.60;99.90;;;;;;5002281;28;20036;-61
2022/01/01 03:29:12;;;;;;;5.82;4.25;;;11.60;99.90;;;;;;5002686;28;20113;-60
2022/01/01 03:31:38;;;;;;;4.22;3.85;;;11.60;99.90;;;;;;5003720;28;20074;-61
2022/01/01 03:34:04;;;;;;;5.68;4.10;;;11.60;99.90;;;;;;5003375;28;20030;-60
2022/01/01 03:36:30;;;;;;;4.22;3.83;;;11.60;99.90;;;;;;5002435;28;20029;-61
2022/01/01 03:38:56;;;;;;;4.80;4.20;;;11.60;99.90;;;;;;5005045;28;20739;-60
2022/01/01 03:41:22;;;;;;;5.40;4.55;;;11.60;99.90;;;;;;5001496;28;20048;-60
2022/01/01 03:43:48;;;;;;;7.13;4.65;;;11.60;99.90;;;;;;5002409;28;20034;-60
2022/01/01 03:46:14;;;;;;;4.60;4.20;;;11.60;99.90;;;;;;5003363;28;20038;-60
2022/01/01 03:48:40;;;;;;;6.95;4.88;;;11.60;99.90;;;;;;5005645;28;20084;-61
2022/01/01 03:51:05;;;;;;;4.90;4.43;;;11.60;99.90;;;;;;5006926;28;20465;-60
2022/01/01 03:53:31;;;;;;;4.80;4.30;;;11.60;99.90;;;;;;5002060;28;20042;-61
2022/01/01 03:55:58;;;;;;;5.38;4.43;;;11.60;99.90;;;;;;5000700;28;20031;-60
2022/01/01 03:58:25;;;;;;;4.68;4.28;;;11.60;99.90;;;;;;5001276;28;20164;-60
2022/01/01 04:00:50;;;;;;;5.57;4.97;;;11.50;99.90;;;;;;5002434;28;20114;-60
2022/01/01 04:03:17;;;;;;;6.65;4.88;;;11.50;99.90;;;;;;5002474;28;20042;-62
2022/01/01 04:05:44;;;;;;;5.45;4.90;;;11.50;99.90;;;;;;5001098;28;20033;-61
2022/01/01 04:08:10;;;;;;;6.05;5.13;;;11.50;99.90;;;;;;5003088;28;20066;-60
2022/01/01 04:10:37;;;;;;;5.38;4.88;;;11.50;99.90;;;;;;5002048;28;20026;-61
2022/01/01 04:13:04;;;;;;;6.03;5.38;;;11.50;99.90;;;;;;5004064;28;20050;-61
2022/01/01 04:15:31;;;;;;;5.45;4.95;;;11.50;99.90;;;;;;5000946;28;20018;-60
2022/01/01 04:18:02;;;;;;;6.22;5.00;;;11.40;99.90;;;;;;5001651;28;20083;-60
2022/01/01 04:20:28;;;;;;;5.97;5.05;;;11.40;99.90;;;;;;5001150;28;20030;-61
2022/01/01 04:22:55;;;;;;;5.95;5.05;;;11.40;99.90;;;;;;5002588;28;20037;-61
2022/01/01 04:25:22;;;;;;;6.78;5.22;;;11.40;99.90;;;;;;5003641;28;20500;-61
2022/01/01 04:27:49;;;;;;;6.72;5.68;;;11.40;99.90;;;;;;5000894;28;20045;-61
2022/01/01 04:30:15;;;;;;;9.38;5.32;;;11.40;99.90;;;;;;5000569;28;20395;-61
2022/01/01 04:32:41;;;;;;;6.63;5.15;;;11.40;99.90;;;;;;4999437;28;20029;-61
2022/01/01 04:35:07;;;;;;;6.60;5.28;;;11.40;99.90;;;;;;5001302;28;20387;-61
2022/01/01 04:37:33;;;;;;;7.20;5.45;;;11.30;99.90;;;;;;5000780;28;20046;-61
2022/01/01 04:39:59;;;;;;;7.93;4.30;;;11.30;99.90;;;;;;5000851;28;20068;-61
2022/01/01 04:42:28;;;;;;;7.15;5.40;;;11.30;99.90;;;;;;5001113;28;20482;-60
2022/01/01 04:44:54;;;;;;;7.40;5.32;;;11.30;99.90;;;;;;4998484;28;20022;-61
2022/01/01 04:47:20;;;;;;;5.93;5.32;;;11.30;99.90;;;;;;4999351;28;20034;-61
2022/01/01 04:49:45;;;;;;;6.57;5.53;;;11.30;99.90;;;;;;5001456;28;20176;-60
2022/01/01 04:52:11;;;;;;;5.18;4.68;;;11.30;99.90;;;;;;5001812;28;20128;-61
2022/01/01 04:54:41;;;;;;;6.30;5.70;;;11.30;99.90;;;;;;5016816;28;20030;-61
2022/01/01 04:57:07;;;;;;;8.25;5.22;;;11.20;99.90;;;;;;5017218;28;20155;-61
2022/01/01 04:59:34;;;;;;;6.97;5.57;;;11.30;99.90;;;;;;5000133;28;20045;-60
2022/01/01 05:02:00;;;;;;;5.45;4.95;;;11.30;99.90;;;;;;5000318;28;20030;-61
2022/01/01 05:04:26;;;;;;;6.80;6.10;;;11.30;99.90;;;;;;4997759;28;20029;-61
2022/01/01 05:06:52;;;;;;;6.38;5.55;;;11.30;99.90;;;;;;4997663;28;20029;-61
2022/01/01 05:09:19;;;;;;;7.68;5.53;;;11.30;99.90;;;;;;5000296;28;20145;-61
2022/01/01 05:11:46;;;;;;;7.82;7.13;;;11.30;99.90;;;;;;5001560;28;20025;-61
2022/01/01 05:14:12;;;;;;;6.65;6.05;;;11.30;99.90;;;;;;5001728;28;20045;-60
2022/01/01 05:16:38;;;;;;;5.70;5.05;;;11.30;99.90;;;;;;4999970;28;20022;-61
2022/01/01 05:19:04;;;;;;;6.80;5.53;;;11.30;99.90;;;;;;5002054;28;20061;-60
2022/01/01 05:21:32;;;;;;;6.10;5.50;;;11.30;99.90;;;;;;5001359;28;20097;-61
2022/01/01 05:23:59;;;;;;;6.75;5.78;;;11.30;99.90;;;;;;5000210;28;20239;-61
2022/01/01 05:26:25;;;;;;;7.82;7.03;;;11.30;99.90;;;;;;5002507;28;20026;-60
2022/01/01 05:28:50;;;;;;;6.75;6.05;;;11.30;99.90;;;;;;5000692;28;20032;-60
2022/01/01 05:31:19;;;;;;;7.68;5.80;;;11.30;99.90;;;;;;5001337;28;20129;-60
2022/01/01 05:33:51;;;;;;;8.02;5.45;;;11.20;99.90;;;;;;5001244;28;20030;-60
2022/01/01 05:36:18;;;;;;;6.38;5.78;;;11.20;99.90;;;;;;5001068;28;20038;-61
2022/01/01 05:38:45;;;;;;;6.50;5.53;;;11.20;99.90;;;;;;5004281;28;20025;-60
2022/01/01 05:41:11;;;;;;;5.82;5.22;;;11.10;99.90;;;;;;5003593;28;20033;-61
2022/01/01 05:43:37;;;;;;;6.40;5.65;;;11.10;99.90;;;;;;5002400;28;20046;-61
2022/01/01 05:46:03;;;;;;;6.30;5.70;;;11.10;99.90;;;;;;5002121;28;20489;-60
2022/01/01 05:48:29;;;;;;;6.00;4.90;;;11.10;99.90;;;;;;5000458;28;20034;-61
2022/01/01 05:50:55;;;;;;;6.18;5.50;;;11.00;99.90;;;;;;5003577;28;20036;-61
2022/01/01 05:53:21;;;;;;;5.47;4.93;;;11.00;99.90;;;;;;5016969;28;20413;-61
2022/01/01 05:55:56;;;;;;;5.88;5.32;;;11.00;99.90;;;;;;5001118;28;20030;-60
2022/01/01 05:58:21;;;;;;;5.95;5.32;;;11.00;99.90;;;;;;5015575;28;20026;-60
2022/01/01 06:00:47;;;;;;;8.88;5.13;;;11.00;99.90;;;;;;5000749;28;20658;-61
2022/01/01 06:03:15;;;;;;;6.30;5.70;;;11.00;99.90;;;;;;5002572;28;20486;-62
2022/01/01 06:05:40;;;;;;;6.90;4.93;;;11.00;99.90;;;;;;4998572;28;20575;-61
2022/01/01 06:08:06;;;;;;;5.22;4.72;;;10.90;99.90;;;;;;4997860;28;20564;-61
2022/01/01 06:10:32;;;;;;;6.90;5.05;;;10.90;99.90;;;;;;4998139;28;20583;-60
2022/01/01 06:12:57;;;;;;;7.05;5.22;;;10.90;99.90;;;;;;4999105;28;20040;-61
2022/01/01 06:15:23;;;;;;;5.30;4.80;;;10.90;99.90;;;;;;5000566;28;20026;-61
2022/01/01 06:17:48;;;;;;;6.25;5.10;;;10.90;99.90;;;;;;5001037;28;20021;-61
2022/01/01 06:20:15;;;;;;;5.32;4.57;;;10.90;99.90;;;;;;4998744;28;20544;-60
2022/01/01 06:22:42;;;;;;;6.53;4.53;;;10.90;99.90;;;;;;5000869;28;20835;-61
2022/01/01 06:25:08;;;;;;;10.05;6.47;;;11.00;99.90;;;;;;5006606;28;20026;-61
2022/01/01 06:27:34;;;;;;;4.68;4.22;;;11.00;99.90;;;;;;5000790;28;20022;-61
2022/01/01 06:29:59;;;;;;;7.25;4.72;;;10.90;99.90;;;;;;5003029;28;20072;-61
2022/01/01 06:32:25;;;;;;;10.75;4.65;;;10.90;99.90;;;;;;5003100;28;20497;-61
2022/01/01 06:34:51;;;;;;;8.13;4.55;;;10.90;99.90;;;;;;5004619;28;20030;-61
2022/01/01 06:37:16;;;;;;;4.93;4.22;;;10.90;99.90;;;;;;5004899;28;20030;-60
2022/01/01 06:39:42;;;;;;;6.10;4.63;;;10.90;99.90;;;;;;5001828;28;20034;-61
2022/01/01 06:42:08;;;;;;;5.30;4.22;;;11.00;99.90;;;;;;5003871;28;20026;-61
2022/01/01 06:44:34;;;;;;;8.32;4.28;;;11.00;99.90;;;;;;5008457;28;20105;-60
2022/01/01 06:47:00;;;;;;;5.10;4.25;;;11.00;99.90;;;;;;5005126;28;20072;-60
2022/01/01 06:49:26;;;;;;;6.63;4.68;;;11.00;99.90;;;;;;5007099;28;20382;-61
2022/01/01 06:51:52;;;;;;;4.72;3.92;;;11.00;99.90;;;;;;5003872;28;20026;-61
2022/01/01 06:54:17;;;;;;;5.97;4.10;;;11.00;99.90;;;;;;5004395;28;20153;-62
2022/01/01 06:56:43;;;;;;;7.15;4.80;;;11.00;99.90;;;;;;5003487;28;20477;-60
2022/01/01 06:59:09;;;;;;;5.32;4.57;;;11.00;99.90;;;;;;5005172;28;20026;-61
2022/01/01 07:01:36;;;;;;;5.80;4.60;;;11.00;99.90;;;;;;5001347;28;20549;-60
2022/01/01 07:04:03;;;;;;;5.32;4.68;;;11.00;99.90;;;;;;5005012;28;20526;-60
2022/01/01 07:06:29;;;;;;;7.65;4.60;;;11.00;99.90;;;;;;5004700;28;20019;-61
2022/01/01 07:08:55;;;;;;;10.88;6.30;;;11.00;99.90;;;;;;5003856;28;20713;-60
2022/01/01 07:11:21;;;;;;;9.25;4.53;;;11.00;99.90;;;;;;5003873;28;20057;-60
2022/01/01 07:13:46;;;;;;;5.28;3.80;;;11.00;99.90;;;;;;5007228;28;20072;-60
2022/01/01 07:16:12;;;;;;;5.30;4.80;;;11.00;99.90;;;;;;5004061;28;20209;-61
2022/01/01 07:18:38;;;;;;;6.05;4.88;;;11.00;99.90;;;;;;5006741;28;20037;-61
2022/01/01 07:21:03;;;;;;;5.78;4.72;;;11.00;99.90;;;;;;5008847;28;20040;-61
2022/01/01 07:23:29;;;;;;;8.73;4.72;;;11.00;99.90;;;;;;5002486;28;20058;-61
2022/01/01 07:25:54;;;;;;;7.13;4.88;;;11.00;99.90;;;;;;5007945;28;20023;-61
2022/01/01 07:28:20;;;;;;;5.97;4.75;;;11.00;99.90;;;;;;5001746;28;20037;-60
2022/01/01 07:30:46;;;;;;;6.85;5.05;;;11.00;99.90;;;;;;5002800;28;20034;-60
2022/01/01 07:33:13;;;;;;;6.88;5.25;;;11.00;99.90;;;;;;5000943;28;20469;-63
2022/01/01 07:35:39;;;;;;;6.60;4.78;;;11.00;99.90;;;;;;5002643;28;20393;-63
2022/01/01 07:38:05;;;;;;;5.72;4.95;;;11.00;99.90;;;;;;5004005;28;20490;-63
2022/01/01 07:40:34;;;;;;;6.55;4.78;;;11.00;99.90;;;;;;5001436;28;20057;-62
2022/01/01 07:43:10;;;;;;;7.07;4.60;;;11.00;99.90;;;;;;5003461;28;20023;-63
2022/01/01 07:45:36;;;;;;;5.38;4.28;;;11.00;99.90;;;;;;5003215;28;20053;-62
2022/01/01 07:48:02;;;;;;;8.10;4.55;;;11.00;99.90;;;;;;5003488;28;20095;-62
2022/01/01 07:50:27;;;;;;;7.43;4.68;;;11.00;99.90;;;;;;5001643;28;20513;-62
2022/01/01 07:52:53;;;;;;;6.82;4.75;;;11.10;99.90;;;;;;5002632;28;20504;-62
2022/01/01 07:55:18;;;;;;;5.72;5.10;;;11.10;99.90;;;;;;5002169;28;20049;-62
2022/01/01 07:57:44;;;;;;;4.60;4.20;;;11.10;99.90;;;;;;5003716;28;20033;-63
2022/01/01 08:00:10;;;;;;;5.63;5.13;;;11.10;99.90;;;;;;5004109;28;20014;-63
2022/01/01 08:02:44;;;;;;;9.05;5.28;;;11.10;99.90;;;;;;5004108;28;20046;-62
2022/01/01 08:05:11;;;;;;;5.47;4.45;;;11.00;99.90;;;;;;5001612;28;20034;-62
2022/01/01 08:07:37;;;;;;;10.85;7.10;;;11.00;99.90;;;;;;5005038;28;20034;-62
2022/01/01 08:10:04;;;;;;;5.18;4.75;;;11.10;99.90;;;;;;5002775;28;20037;-63
2022/01/01 08:12:29;;;;;;;5.85;5.35;;;11.10;99.90;;;;;;5000083;28;20048;-63
2022/01/01 08:14:56;;;;;;;5.88;4.60;;;11.00;99.90;;;;;;5003794;28;20438;-61
2022/01/01 08:17:23;;;;;;;6.55;5.18;;;11.00;99.90;;;;;;5003097;28;20359;-63
2022/01/01 08:19:48;;;;;;;8.30;6.15;;;11.00;99.90;;;;;;5003620;28;20032;-63
2022/01/01 08:22:14;;;;;;;13.65;7.18;;;11.00;99.90;;;;;;5003371;28;20137;-63
2022/01/01 08:24:41;;;;;;;8.07;6.53;;;11.10;99.90;;;;;;5003826;28;20415;-63
2022/01/01 08:27:07;;;;;;;12.98;8.48;;;11.10;99.90;;;;;;4998708;28;20018;-62
2022/01/01 08:29:32;;;;;;;9.07;8.18;;;11.10;99.90;;;;;;5004998;28;20033;-62
2022/01/01 08:31:58;;;;;;;7.88;7.00;;;11.20;99.90;;;;;;5001399;28;20131;-62
2022/01/01 08:34:24;;;;;;;9.13;5.97;;;11.20;99.90;;;;;;5001546;28;20038;-63
2022/01/01 08:36:50;;;;;;;6.18;5.57;;;11.20;99.90;;;;;;4997983;28;20034;-63
2022/01/01 08:39:16;;;;;;;6.60;5.97;;;11.20;99.90;;;;;;5000746;28;20030;-63
2022/01/01 08:41:43;;;;;;;7.93;4.95;;;11.30;99.90;;;;;;5002485;28;20022;-63
2022/01/01 08:44:09;;;;;;;6.40;5.45;;;11.30;99.90;;;;;;4999782;28;20104;-63
2022/01/01 08:46:35;;;;;;;8.40;5.53;;;11.40;99.90;;;;;;4999703;28;20039;-63
2022/01/01 08:49:02;;;;;;;6.35;5.28;;;11.40;99.90;;;;;;5001085;28;20201;-63
2022/01/01 08:51:28;;;;;;;5.70;4.55;;;11.50;99.90;;;;;;5003480;28;20032;-63
2022/01/01 08:53:54;;;;;;;6.25;5.68;;;11.50;99.90;;;;;;5002165;28;20593;-63
2022/01/01 08:56:20;;;;;;;6.25;5.63;;;11.60;99.90;;;;;;4999259;28;20030;-63
2022/01/01 08:58:46;;;;;;;5.85;5.07;;;11.60;99.90;;;;;;5004760;28;20500;-63
2022/01/01 09:01:13;;;;;;;7.47;5.60;;;11.70;99.90;;;;;;5000333;28;20421;-63
2022/01/01 09:03:39;;;;;;;9.35;5.60;;;11.70;99.90;;;;;;4999548;28;20034;-63
2022/01/01 09:06:05;;;;;;;6.57;5.75;;;11.80;99.90;;;;;;5002106;28;20500;-63
2022/01/01 09:08:33;;;;;;;8.82;6.00;;;11.80;99.90;;;;;;5002287;28;20030;-63
2022/01/01 09:10:59;;;;;;;7.78;5.15;;;11.90;99.90;;;;;;4999496;28;20033;-63
2022/01/01 09:13:25;;;;;;;5.78;5.18;;;11.90;99.90;;;;;;5003685;28;20037;-63
2022/01/01 09:15:52;;;;;;;7.95;6.88;;;12.00;99.90;;;;;;5004327;28;20033;-63
2022/01/01 09:18:17;;;;;;;8.10;6.47;;;12.00;99.90;;;;;;5003154;28;20030;-64
2022/01/01 09:20:43;;;;;;;8.50;6.50;;;12.10;99.90;;;;;;5001188;28;20033;-64
2022/01/01 09:23:09;;;;;;;6.53;5.93;;;12.20;99.90;;;;;;5003052;28;20509;-63
2022/01/01 09:25:36;;;;;;;8.68;5.03;;;12.20;99.90;;;;;;5001996;28;20088;-63
2022/01/01 09:28:02;;;;;;;6.97;4.93;;;12.20;99.90;;;;;;4998474;28;20026;-63
2022/01/01 09:30:27;;;;;;;5.80;5.30;;;12.30;99.90;;;;;;5003225;28;20488;-64
2022/01/01 09:32:53;;;;;;;7.43;6.43;;;12.30;99.90;;;;;;5000395;28;20026;-64
2022/01/01 09:35:19;;;;;;;7.38;6.68;;;12.30;99.90;;;;;;5001618;28;20034;-63
2022/01/01 09:37:44;;;;;;;5.50;4.93;;;12.30;99.90;;;;;;5002443;28;20029;-63
2022/01/01 09:40:11;;;;;;;6.57;5.07;;;12.40;99.90;;;;;;4999519;28;20105;-63
2022/01/01 09:42:39;;;;;;;5.40;4.82;;;12.40;99.90;;;;;;5000525;28;20025;-63
2022/01/01 09:45:09;;;;;;;6.38;4.90;;;12.40;99.90;;;;;;4998521;28;20042;-63
2022/01/01 09:47:36;;;;;;;6.32;5.45;;;12.40;99.90;;;;;;5001983;28;20034;-63
2022/01/01 09:50:04;;;;;;;6.82;5.30;;;12.40;99.90;;;;;;5001320;28;20026;-64
2022/01/01 09:52:30;;;;;;;7.45;4.38;;;12.50;99.90;;;;;;4997810;28;20203;-63
2022/01/01 09:54:56;;;;;;;5.20;4.80;;;12.50;99.90;;;;;;5000804;28;20517;-63
2022/01/01 09:57:22;;;;;;;5.90;5.40;;;12.50;99.90;;;;;;5001021;28;20049;-63
2022/01/01 09:59:48;;;;;;;9.02;5.25;;;12.50;99.90;;;;;;4999995;28;20018;-63
2022/01/01 10:02:13;;;;;;;7.25;4.03;;;12.50;99.90;;;;;;4996900;28;20091;-63
2022/01/01 10:04:51;;;;;;;6.15;4.47;;;12.50;99.90;;;;;;5002342;28;20048;-63
2022/01/01 10:07:18;;;;;;;4.82;4.40;;;12.50;99.90;;;;;;5000584;28;20026;-63
2022/01/01 10:09:43;;;;;;;6.18;3.67;;;12.60;99.90;;;;;;4997465;28;20034;-63
2022/01/01 10:12:14;;;;;;;5.22;3.90;;;12.60;99.90;;;;;;5000388;28;20018;-63
2022/01/01 10:14:45;;;;;;;5.20;4.25;;;12.60;99.90;;;;;;4997852;28;20046;-63
2022/01/01 10:17:17;;;;;;;4.68;4.05;;;12.60;99.90;;;;;;4999054;28;20122;-63
2022/01/01 10:19:44;;;;;;;4.30;3.88;;;12.60;99.90;;;;;;5004188;28;20257;-63
2022/01/01 10:22:14;;;;;;;6.60;4.22;;;12.60;99.90;;;;;;5001709;28;20023;-63
2022/01/01 10:27:42;;;;;;;4.95;4.43;;;12.70;99.90;;;;;;5001348;28;20079;-63
2022/01/01 10:30:09;;;;;;;5.03;3.80;;;12.70;99.90;;;;;;5002455;28;20018;-63
2022/01/01 10:32:35;;;;;;;7.28;5.75;;;12.70;99.90;;;;;;5008455;28;20493;-63
2022/01/01 10:35:02;;;;;;;5.25;4.75;;;12.70;99.90;;;;;;5016299;28;20158;-63
2022/01/01 10:37:29;;;;;;;13.85;4.55;;;12.70;99.90;;;;;;5001858;28;20302;-63
2022/01/01 10:39:55;;;;;;;6.80;5.65;;;12.80;99.90;;;;;;4998240;28;20035;-63
2022/01/01 10:42:21;;;;;;;6.82;4.55;;;12.80;99.90;;;;;;5002878;28;20382;-64
2022/01/01 10:44:49;;;;;;;8.55;5.90;;;12.90;99.90;;;;;;4999817;28;20168;-63
2022/01/01 10:47:20;;;;;;;7.47;6.25;;;12.90;99.90;;;;;;4996853;28;20127;-63
2022/01/01 10:52:13;;;;;;;5.70;4.80;;;13.10;99.90;;;;;;5002452;28;19914;-63
2022/01/01 10:54:46;;;;;;;6.55;4.13;;;13.20;99.90;;;;;;5001803;28;20091;-64
2022/01/01 10:57:12;;;;;;;7.00;3.95;;;13.20;99.90;;;;;;4998679;28;20048;-65
2022/01/01 10:59:38;;;;;;;4.53;3.88;;;13.20;99.90;;;;;;5000459;28;20477;-63
2022/01/01 11:02:07;;;;;;;4.35;3.53;;;13.20;99.90;;;;;;5000924;28;20033;-63
2022/01/01 11:04:38;;;;;;;4.68;3.33;;;13.20;99.90;;;;;;4997231;28;20026;-64
2022/01/01 11:07:06;;;;;;;3.95;3.22;;;13.20;99.90;;;;;;4998525;28;20490;-63
2022/01/01 11:09:32;;;;;;;3.90;2.92;;;13.20;99.90;;;;;;5004497;28;20129;-63
2022/01/01 11:12:03;;;;;;;5.28;4.03;;;13.20;99.90;;;;;;5004965;28;20392;-63
2022/01/01 11:14:32;;;;;;;5.07;3.35;;;13.30;99.90;;;;;;5002161;28;20150;-63
2022/01/01 11:17:01;;;;;;;4.00;3.38;;;13.20;99.90;;;;;;5002624;28;20084;-63
2022/01/01 11:19:27;;;;;;;10.00;8.77;;;13.20;99.90;;;;;;5002856;28;20034;-63
2022/01/01 11:21:53;;;;;;;7.43;5.28;;;13.20;99.90;;;;;;5003555;28;20032;-63
2022/01/01 11:24:21;;;;;;;5.22;4.50;;;13.20;99.90;;;;;;5005837;28;20053;-64
2022/01/01 11:26:49;;;;;;;3.75;3.28;;;13.30;99.90;;;;;;4995723;28;20084;-63
2022/01/01 11:29:15;;;;;;;4.45;3.25;;;13.30;99.90;;;;;;5002416;28;20058;-63
2022/01/01 11:31:42;;;;;;;3.63;3.13;;;13.40;99.90;;;;;;5005410;28;20160;-63
2022/01/01 11:34:09;;;;;;;4.32;3.63;;;13.40;99.90;;;;;;5003917;28;20418;-63
2022/01/01 11:36:35;;;;;;;4.55;3.50;;;13.50;99.90;;;;;;5001022;28;20544;-63
2022/01/01 11:39:05;;;;;;;3.38;3.08;;;13.50;99.90;;;;;;5003070;28;20026;-63
2022/01/01 11:41:39;;;;;;;4.63;3.83;;;13.50;99.90;;;;;;5001435;28;20045;-64
2022/01/01 11:44:32;;;;;;;5.28;3.38;;;13.50;99.90;;;;;;5003404;28;20026;-63
2022/01/01 11:47:00;;;;;;;6.50;3.70;;;13.60;99.90;;;;;;5004197;28;20032;-63
2022/01/01 11:49:28;;;;;;;6.78;3.42;;;13.60;99.90;;;;;;5004680;28;20973;-63
2022/01/01 11:51:56;;;;;;;4.68;2.90;;;13.60;99.90;;;;;;4999888;28;20080;-63
2022/01/01 11:54:25;;;;;;;4.68;3.40;;;13.60;99.90;;;;;;4999015;28;20037;-63
2022/01/01 11:56:50;;;;;;;6.97;3.85;;;13.60;99.90;;;;;;5004119;28;20045;-63
2022/01/01 11:59:37;;;;;;;11.82;3.67;;;13.60;99.90;;;;;;5018672;28;20041;-63
2022/01/01 12:02:18;;;;;;;6.80;3.50;;;13.50;99.90;;;;;;5000635;28;20037;-63
2022/01/01 12:04:48;;;;;;;5.70;4.28;;;13.60;99.90;;;;;;5000823;28;20192;-63
2022/01/01 12:07:16;;;;;;;5.22;4.15;;;13.50;99.90;;;;;;5001107;28;20952;-64
2022/01/01 12:10:05;;;;;;;5.55;3.70;;;13.50;99.90;;;;;;5003641;28;20026;-63
2022/01/01 12:13:01;;;;;;;4.63;3.45;;;13.50;99.90;;;;;;5017470;28;20695;-64
2022/01/01 12:15:31;;;;;;;3.90;3.40;;;13.40;99.90;;;;;;4994960;28;20057;-64
2022/01/01 12:18:04;;;;;;;5.93;3.22;;;13.30;99.90;;;;;;5001759;28;20045;-63
2022/01/01 12:20:50;;;;;;;3.85;3.08;;;13.30;99.90;;;;;;5003217;28;20061;-63
2022/01/01 12:23:34;;;;;;;4.40;3.08;;;13.30;99.90;;;;;;5001221;28;20028;-63
2022/01/01 12:26:05;;;;;;;3.95;3.03;;;13.30;99.90;;;;;;5000024;28;20038;-64
2022/01/01 12:28:32;;;;;;;3.22;2.78;;;13.30;99.90;;;;;;5003980;28;20279;-63
2022/01/01 12:31:14;;;;;;;6.93;3.55;;;13.40;99.90;;;;;;5002833;28;20041;-63
2022/01/01 12:33:45;;;;;;;3.83;2.97;;;13.40;99.90;;;;;;5001919;28;20460;-63
2022/01/01 12:36:17;;;;;;;5.28;2.88;;;13.40;99.90;;;;;;5002693;28;20057;-64
2022/01/01 12:38:48;;;;;;;7.80;3.85;;;13.40;99.90;;;;;;5000701;28;20486;-63
2022/01/01 12:41:22;;;;;;;3.70;3.08;;;13.40;99.90;;;;;;5017329;28;20037;-63
2022/01/01 12:43:52;;;;;;;6.45;3.80;;;13.50;99.90;;;;;;5018122;28;20022;-64
2022/01/01 12:46:25;;;;;;;6.22;2.97;;;13.50;99.90;;;;;;4997911;28;20026;-64
2022/01/01 12:48:52;;;;;;;7.53;3.60;;;13.50;99.90;;;;;;5002953;28;20026;-63
2022/01/01 12:51:21;;;;;;;6.28;3.53;;;13.50;99.90;;;;;;5017504;28;20021;-64
2022/01/01 12:53:52;;;;;;;4.97;4.10;;;13.50;99.90;;;;;;5002401;28;20022;-63
2022/01/01 12:56:19;;;;;;;4.80;2.85;;;13.50;99.90;;;;;;4999692;28;20524;-63